WetterOnline ( http://www.wetteronline.de )

Wetter aktuell PLZ Bereich 53547

Aktuelles Wetter: Roleber (162m)

6-stündlich | Neueste Meldungen
Ortszeit Temperatur Wetter
Do, 21.06. 2:00 19.3° C fast wolkenlos
Mi, 20.06. 20:00 26.7° C fast wolkenlos
Mi, 20.06. 14:00 25.9° C wolkig
Mi, 20.06. 8:00 19.4° C bedeckt
Mi, 20.06. 2:00 17.9° C bedeckt
Di, 19.06. 20:00 20.4° C bedeckt
Di, 19.06. 14:00 19.3° C bedeckt
Di, 19.06. 8:00 15.9° C bedeckt
Ortszeit Temperatur Wetter
Do, 21.06. 6:00 17.7° C fast wolkenlos
Do, 21.06. 5:50 17.7° C fast wolkenlos
Do, 21.06. 5:40 17.6° C leicht bewölkt
Do, 21.06. 5:30 17.5° C leicht bewölkt
Do, 21.06. 5:20 17.5° C leicht bewölkt
Do, 21.06. 5:10 17.6° C leicht bewölkt
Do, 21.06. 5:00 17.9° C leicht bewölkt
Do, 21.06. 4:30 18.1° C wolkig
Do, 21.06. 4:00 18.4° C leicht bewölkt
Do, 21.06. 3:30 19.3° C bewölkt
Do, 21.06. 3:00 19.6° C bedeckt
Ortszeit Relative Feuchte Sichtweite
Do, 21.06. 2:00 73% 35 km
Mi, 20.06. 20:00 46% 70 km
Mi, 20.06. 14:00 52% 45 km
Mi, 20.06. 8:00 82% 25 km
Mi, 20.06. 2:00 87% 26 km
Di, 19.06. 20:00 72% 40 km
Di, 19.06. 14:00 77% 16 km
Di, 19.06. 8:00 86% 30 km
Ortszeit Relative Feuchte Sichtweite
Do, 21.06. 6:00 76% 29 km
Do, 21.06. 5:50 76% -
Do, 21.06. 5:40 77% -
Do, 21.06. 5:30 78% 26 km
Do, 21.06. 5:20 78% -
Do, 21.06. 5:10 78% -
Do, 21.06. 5:00 77% 28 km
Do, 21.06. 4:30 76% 30 km
Do, 21.06. 4:00 75% 30 km
Do, 21.06. 3:30 71% 40 km
Do, 21.06. 3:00 71% 50 km
Ortszeit Niederschlagsmenge Niederschlagsart
Do, 21.06. 2:00 0.0 l/m2 in 6 Std. -
Mi, 20.06. 20:00 0.0 l/m2 in 12 Std. -
Mi, 20.06. 14:00 0.0 l/m2 in 6 Std. -
Mi, 20.06. 8:00 0.0 l/m2 in 12 Std. -
Mi, 20.06. 2:00 0.0 l/m2 in 6 Std. -
Di, 19.06. 20:00 0.1 l/m2 in 12 Std. Regen
Di, 19.06. 14:00 0.1 l/m2 in 6 Std. Regen
Di, 19.06. 8:00 0.0 l/m2 in 12 Std. -
Ortszeit Niederschlagsmenge Niederschlagsart
Do, 21.06. 6:00 0.0 l/m2 in 1 Std. -
Do, 21.06. 5:50 keine Meldung -
Do, 21.06. 5:40 keine Meldung -
Do, 21.06. 5:30 0.0 l/m2 in 1 Std. -
Do, 21.06. 5:20 keine Meldung -
Do, 21.06. 5:10 keine Meldung -
Do, 21.06. 5:00 0.0 l/m2 in 1 Std. -
Do, 21.06. 4:30 0.0 l/m2 in 1 Std. -
Do, 21.06. 4:00 0.0 l/m2 in 1 Std. -
Do, 21.06. 3:30 0.0 l/m2 in 1 Std. -
Do, 21.06. 3:00 0.0 l/m2 in 1 Std. -
Ortszeit Stärke Spitze Richtung
km/h Bft. km/h Grad Sektor
Do, 21.06. 2:00 4 1 14 290° W
Mi, 20.06. 20:00 4 1 22 310° NW
Mi, 20.06. 14:00 7 2 22 210° SW
Mi, 20.06. 8:00 4 1 11 180° S
Mi, 20.06. 2:00 4 1 7 260° W
Di, 19.06. 20:00 4 1 18 20° N
Di, 19.06. 14:00 6 1 15 330° NW
Di, 19.06. 8:00 4 1 14 200° S
Ortszeit Stärke Spitze Richtung
km/h Bft. km/h Grad Sektor
Do, 21.06. 6:00 7 2 18 240° SW
Do, 21.06. 5:50 7 2 - 240° SW
Do, 21.06. 5:40 7 2 - 230° SW
Do, 21.06. 5:30 6 1 15 230° SW
Do, 21.06. 5:20 6 1 - 230° SW
Do, 21.06. 5:10 6 1 - 230° SW
Do, 21.06. 5:00 6 1 13 240° SW
Do, 21.06. 4:30 4 1 14 250° W
Do, 21.06. 4:00 6 1 20 280° W
Do, 21.06. 3:30 4 1 22 270° W
Do, 21.06. 3:00 7 2 14 280° W
Ortszeit Untergrenze Bedeckung Gattung
total tief tief mittel hoch
Do, 21.06. 2:00 1500 m 0/8 0/8 - - -
Mi, 20.06. 20:00 9000 m 2/8 0/8 - - -
Mi, 20.06. 14:00 1320 m 6/8 - - - -
Mi, 20.06. 8:00 1110 m 8/8 8/8 - - -
Mi, 20.06. 2:00 1080 m 8/8 8/8 - - -
Di, 19.06. 20:00 1290 m 8/8 8/8 - - -
Di, 19.06. 14:00 390 m 8/8 8/8 - - -
Di, 19.06. 8:00 450 m 8/8 8/8 - - -
Ortszeit Bedeckungsgrad in Achtel und Wolkenuntergrenze
Do, 21.06. 6:00 2(7500m)
Do, 21.06. 5:50 2(7500m)
Do, 21.06. 5:40 4(7500m)
Do, 21.06. 5:30 6(7200m)
Do, 21.06. 5:20 6(7200m)
Do, 21.06. 5:10 3(7200m) 6(7500m)
Do, 21.06. 5:00 2(1500m) 5(7500m)
Do, 21.06. 4:30 2(1410m) 3(1500m) 6(7800m)
Do, 21.06. 4:00 6(7500m) 6(8100m)
Do, 21.06. 3:30 5(1350m) 5(1500m) 8(7800m)
Do, 21.06. 3:00 7(1350m) 8(1500m)
Ortszeit Luftdruck NN (hPa) Tendenz (hPa in 3 Std.)
Do, 21.06. 2:00 1017 - 0,9
Mi, 20.06. 20:00 1017 - 1,4
Mi, 20.06. 14:00 1020 - 1,5
Mi, 20.06. 8:00 1023 - 0,5
Mi, 20.06. 2:00 1024 - 0,3
Di, 19.06. 20:00 1024 - 0,3
Di, 19.06. 14:00 1025 + 0,6
Di, 19.06. 8:00 1024 + 1,2
Ortszeit Luftdruck NN (hPa) Tendenz (hPa in 3 Std.)
Do, 21.06. 6:00 1015 - 1,6
Do, 21.06. 5:50 1015 keine Meldung
Do, 21.06. 5:40 1015 keine Meldung
Do, 21.06. 5:30 1016 - 1,5
Do, 21.06. 5:20 1016 keine Meldung
Do, 21.06. 5:10 1016 keine Meldung
Do, 21.06. 5:00 1016 - 1,2
Do, 21.06. 4:30 1016 - 1,0
Do, 21.06. 4:00 1016 - 0,9
Do, 21.06. 3:30 1017 - 0,8
Do, 21.06. 3:00 1017 - 0,6
Ortszeit Schneehöhe (cm)
Do, 21.06. 2:00 -
Mi, 20.06. 20:00 -
Mi, 20.06. 14:00 -
Mi, 20.06. 8:00 -
Mi, 20.06. 2:00 -
Di, 19.06. 20:00 -
Di, 19.06. 14:00 -
Di, 19.06. 8:00 -
Ortszeit Schneehöhe (cm)
Do, 21.06. 6:00 -
Do, 21.06. 5:50 -
Do, 21.06. 5:40 -
Do, 21.06. 5:30 -
Do, 21.06. 5:20 -
Do, 21.06. 5:10 -
Do, 21.06. 5:00 -
Do, 21.06. 4:30 -
Do, 21.06. 4:00 -
Do, 21.06. 3:30 -
Do, 21.06. 3:00 -
Link zu dieser Seite / Seite empfehlen

Das Wetter in ...